Tyler, TX

9:31 AM CDT on May 27, 2015 (GMT -0500)
Tyler Pounds | | Change Station
CLOSE
Current Station
Airport
Location: Tyler,
Elevation: 541 ft
Nearby Weather Stations
Active Advisory: Flood Warning Active Notice: Public Information Statement

Elev 541 ft 32.35 °N, 95.40 °W | Updated 38 minutes ago

Clear
Clear
68 °F
Feels Like 68 °F
N
4
Wind Variable Wind from ESE

Today
High -- | Low -- °F
--% Chance of Precip.
Yesterday
High -- | Low -- °F
Precip. -- in
6:17 AM 8:20 PM
Waxing Gibbous, 67% visible
Pressure 30.07 in
Visibility 10.0 miles
Clouds Clear
Dew Point 61 °F
Humidity 78%
Rainfall 0.88 in
Snow Depth Not available.
UV 3 out of 12
Pollen 5.30 out of 12
Air Quality Not available.
Flu Activity Sporadic
METAR KTYR 271353Z 11003KT 10SM CLR 20/16 A3008 RMK AO2 SLP181 T02000161

More Conditions Fewer Conditions

Pressure 30.07 in
Visibility 10.0 miles
Clouds Clear
Dew Point 61 °F
Humidity 78%
Rainfall 0.88 in
Snow Depth Not available.
UV 3 out of 12
Pollen 5.30 out of 12
Air Quality Not available.
Flu Activity Sporadic
METAR KTYR 271353Z 11003KT 10SM CLR 20/16 A3008 RMK AO2 SLP181 T02000161

More Conditions Fewer Conditions

10-Day Weather Forecast

Almanac

Astronomy

May. 27, 2015 Rise Set
Actual Time
Civil Twilight
Nautical Twilight
Astronomical Twilight
Moon
Length of Visible Light
Length of Day
Tomorrow will be .
, % of the Moon is Illuminated

Today's Extremes

State Highs State Lows

Community

WunderPhotos

Upload Photos

1,824,684 photos uploaded!

WunderBlogs® & News

Nearby

Air Quality

  Air Quality AQ Index Pollutant
Not available.

Snow Depth

Station Depth Elevation

Earthquake Activity

City Distance Mag. Time & Date
Minimum magnitude displayed is 2.5.

Coastal Water Temperatures

Place Temperature

Stations

Nearby Weather Stations

Station Location Temp. Windchill Dew Point Humidity Wind Precip. Elev Updated Type
                   
Flood Warning
Statement as of 9:18 AM CDT on May 27, 2015

... Forecast flooding increased from minor to moderate severity...
the Flood Warning continues for
the Sabine River near Gladewater, Texas.
* Until further notice... or until the warning is cancelled.
* At 815 am Wednesday the stage was 28.7 feet.
* Minor flooding is occurring and moderate flooding is forecast.
* Flood stage is 26 feet.
* Forecast... the river will continue rising to near 34.9 feet by
Monday morning. Additional rises remain possible thereafter.
* Impact... considerable lowland flooding of trails. The boat ramp
floods. Move livestock to higher ground away from the river.


Lat... Lon 3257 9509 3251 9490 3245 9491 3251 9501 3253 9508